Time;durP1;ratioP1;P1;durP2;ratioP2;P2;SDS_P1;SDS_P2;PMS_P1;PMS_P2;Temp;Humidity;BMP_temperature;BMP_pressure;BME280_temperature;BME280_humidity;BME280_pressure;Samples;Min_cycle;Max_cycle;Signal;HPM_P1;HPM_P2
2022/05/21 00:01:41;;;;;;;;;30.33;30.33;25.30;33.50;;;;;;4975744;28;8809;-81
2022/05/21 00:04:07;;;;;;;;;30.33;26.33;25.10;33.70;;;;;;4990868;28;8785;-81
2022/05/21 00:06:33;;;;;;;;;27.00;27.00;25.10;34.30;;;;;;4975982;28;8795;-81
2022/05/21 00:08:58;;;;;;;;;26.00;26.00;25.20;35.40;;;;;;4975919;28;8892;-81
2022/05/21 00:11:24;;;;;;;;;25.00;25.00;25.10;34.50;;;;;;4975720;28;8808;-81
2022/05/21 00:13:51;;;;;;;;;28.00;28.00;25.20;34.40;;;;;;4975730;28;8881;-80
2022/05/21 00:16:17;;;;;;;;;23.00;23.00;25.10;34.70;;;;;;4975433;28;9899;-81
2022/05/21 00:18:43;;;;;;;;;29.00;29.00;24.90;34.80;;;;;;4975571;28;8816;-80
2022/05/21 00:21:09;;;;;;;;;24.67;24.67;24.90;34.60;;;;;;4973632;28;8782;-81
2022/05/21 00:23:37;;;;;;;;;28.67;28.67;24.90;34.40;;;;;;4970076;28;8827;-81
2022/05/21 00:26:09;;;;;;;;;18.33;18.33;24.90;34.40;;;;;;4962090;28;8814;-80
2022/05/21 00:28:37;;;;;;;;;19.33;19.33;25.00;34.10;;;;;;4965687;28;8812;-81
2022/05/21 00:31:04;;;;;;;;;21.33;21.33;25.00;33.90;;;;;;4975588;28;8789;-80
2022/05/21 00:33:31;;;;;;;;;17.33;17.33;25.00;33.80;;;;;;4990433;28;8825;-81
2022/05/21 00:35:57;;;;;;;;;14.67;14.67;25.00;33.90;;;;;;4975446;28;8874;-81
2022/05/21 00:38:24;;;;;;;;;16.67;16.67;24.90;34.60;;;;;;4975620;28;8780;-81
2022/05/21 00:40:50;;;;;;;;;15.67;15.67;24.90;34.40;;;;;;4975358;28;8762;-81
2022/05/21 00:43:56;;;;;;;;;14.67;14.67;24.70;34.30;;;;;;4990357;28;8782;-81
2022/05/21 00:46:22;;;;;;;;;13.67;12.33;24.80;34.20;;;;;;4953872;29;8785;-81
2022/05/21 00:49:25;;;;;;;;;15.00;15.00;24.70;34.30;;;;;;4953880;29;8785;-81
2022/05/21 00:51:57;;;;;;;;;16.67;16.67;24.70;34.50;;;;;;4951818;28;8789;-82
2022/05/21 00:54:28;;;;;;;;;20.00;20.00;24.50;34.60;;;;;;4955694;28;9618;-82
2022/05/21 00:57:14;;;;;;;;;23.67;23.67;24.60;34.70;;;;;;4957713;28;8793;-81
2022/05/21 00:59:47;;;;;;;;;23.00;23.00;24.60;34.70;;;;;;4957625;28;8871;-81
2022/05/21 01:02:22;;;;;;;;;19.00;19.00;24.50;34.50;;;;;;4957577;28;8805;-81
2022/05/21 01:04:49;;;;;;;;;17.00;17.00;24.50;34.60;;;;;;4957565;28;8789;-81
2022/05/21 01:07:15;;;;;;;;;29.33;29.33;24.40;34.60;;;;;;4957467;28;8781;-81
2022/05/21 01:09:48;;;;;;;;;27.00;27.00;24.40;34.70;;;;;;4957350;28;8785;-81
2022/05/21 01:12:14;;;;;;;;;19.33;19.33;24.40;34.70;;;;;;4957455;28;8805;-81
2022/05/21 01:14:40;;;;;;;;;22.00;21.00;24.40;34.80;;;;;;4957180;28;8926;-81
2022/05/21 01:17:07;;;;;;;;;20.00;20.00;24.40;34.90;;;;;;4957356;28;8927;-81
2022/05/21 01:19:51;;;;;;;;;19.67;19.67;24.30;35.00;;;;;;4961727;28;8777;-81
2022/05/21 01:22:17;;;;;;;;;26.67;26.67;24.30;35.10;;;;;;4980313;28;8816;-81
2022/05/21 01:24:43;;;;;;;;;30.00;30.00;24.40;35.00;;;;;;4978902;28;8790;-81
2022/05/21 01:27:08;;;;;;;;;31.33;31.00;24.40;34.90;;;;;;4978872;28;8829;-81
2022/05/21 01:29:35;;;;;;;;;36.33;34.33;24.30;35.20;;;;;;4966478;28;8812;-80
2022/05/21 01:32:00;;;;;;;;;36.75;34.50;24.30;35.10;;;;;;4974904;28;8778;-81
2022/05/21 01:34:27;;;;;;;;;46.50;40.75;24.30;35.10;;;;;;4958932;28;8910;-82
2022/05/21 01:36:53;;;;;;;;;46.00;40.00;24.30;35.10;;;;;;4959317;28;8803;-81
2022/05/21 01:39:19;;;;;;;;;41.50;36.50;24.20;35.00;;;;;;4958963;28;8788;-82
2022/05/21 01:41:46;;;;;;;;;40.50;36.50;24.20;34.60;;;;;;4958967;28;8800;-82
2022/05/21 01:46:57;;;;;;;;;37.75;34.50;24.20;35.10;;;;;;4959018;28;8764;-81
2022/05/21 01:49:22;;;;;;;;;31.00;31.00;24.20;35.10;;;;;;4959080;28;8790;-81
2022/05/21 01:51:48;;;;;;;;;35.00;33.33;24.20;35.20;;;;;;4958881;28;8780;-81
2022/05/21 01:54:14;;;;;;;;;31.33;31.33;24.20;35.10;;;;;;4958968;28;8808;-80
2022/05/21 01:56:40;;;;;;;;;28.33;28.33;24.20;35.10;;;;;;4958758;28;8788;-80
2022/05/21 01:59:05;;;;;;;;;27.33;27.33;24.10;35.00;;;;;;4958618;28;8816;-79
2022/05/21 02:01:31;;;;;;;;;19.33;19.33;24.10;35.00;;;;;;4957652;28;8784;-80
2022/05/21 02:03:57;;;;;;;;;18.67;18.67;24.20;35.10;;;;;;4958778;28;8776;-80
2022/05/21 02:06:22;;;;;;;;;20.67;20.67;24.10;35.00;;;;;;4958107;28;8802;-80
2022/05/21 02:08:48;;;;;;;;;25.67;25.67;24.20;35.10;;;;;;4958427;28;9467;-79
2022/05/21 02:11:14;;;;;;;;;26.33;26.33;24.20;35.10;;;;;;4958465;28;8784;-80
2022/05/21 02:13:40;;;;;;;;;32.75;31.75;24.20;35.10;;;;;;4958341;28;8827;-80
2022/05/21 02:16:05;;;;;;;;;35.33;34.33;24.20;35.20;;;;;;4958303;28;8832;-80
2022/05/21 02:18:31;;;;;;;;;39.75;36.25;24.10;35.50;;;;;;4958515;28;8800;-80
2022/05/21 02:20:57;;;;;;;;;37.33;34.33;24.10;35.50;;;;;;4958261;28;8792;-81
2022/05/21 02:23:23;;;;;;;;;35.00;33.67;24.10;35.60;;;;;;4958256;28;8854;-81
2022/05/21 02:25:49;;;;;;;;;27.67;27.67;24.10;35.80;;;;;;4958182;28;8826;-81
2022/05/21 02:28:15;;;;;;;;;24.67;24.67;24.10;35.60;;;;;;4958346;28;9311;-81
2022/05/21 02:30:42;;;;;;;;;29.67;29.67;24.00;36.00;;;;;;4958164;28;8879;-81
2022/05/21 02:33:08;;;;;;;;;29.33;29.33;23.90;37.00;;;;;;4958173;28;8830;-81
2022/05/21 02:35:34;;;;;;;;;31.33;31.00;23.90;37.00;;;;;;4958002;28;8828;-79
2022/05/21 02:40:45;;;;;;;;;27.00;27.00;23.90;37.50;;;;;;4958076;28;8736;-80
2022/05/21 02:43:10;;;;;;;;;31.33;31.33;23.90;37.30;;;;;;4957747;28;8794;-80
2022/05/21 02:45:36;;;;;;;;;24.33;24.33;23.90;37.20;;;;;;4958106;28;8782;-81
2022/05/21 02:48:02;;;;;;;;;24.00;24.00;23.80;37.00;;;;;;4957996;28;8788;-80
2022/05/21 02:50:32;;;;;;;;;18.33;18.33;23.80;37.00;;;;;;4957700;28;8806;-80
2022/05/21 02:52:59;;;;;;;;;23.33;23.33;23.80;37.00;;;;;;4957932;28;8803;-79
2022/05/21 02:55:25;;;;;;;;;22.00;22.00;23.80;37.00;;;;;;4957741;28;8804;-80
2022/05/21 02:57:51;;;;;;;;;25.00;25.00;23.90;37.10;;;;;;4972940;28;8833;-80
2022/05/21 03:00:20;;;;;;;;;24.67;24.67;23.90;37.20;;;;;;4957829;28;8780;-80
2022/05/21 03:02:46;;;;;;;;;19.33;19.33;23.90;37.20;;;;;;4956459;28;8792;-80
2022/05/21 03:05:13;;;;;;;;;26.00;26.00;23.90;37.20;;;;;;4957682;28;8772;-81
2022/05/21 03:07:40;;;;;;;;;23.33;23.33;23.80;37.50;;;;;;4956494;28;8781;-81
2022/05/21 03:10:22;;;;;;;;;22.33;22.33;23.80;37.70;;;;;;4957723;28;8792;-81
2022/05/21 03:13:00;;;;;;;;;22.33;21.33;23.70;37.50;;;;;;4957586;28;8810;-81
2022/05/21 03:15:35;;;;;;;;;54.75;45.50;23.60;37.50;;;;;;4957579;28;8856;-82
2022/05/21 03:18:03;;;;;;;;;71.50;58.00;23.60;37.40;;;;;;4956374;28;8867;-81
2022/05/21 03:20:29;;;;;;;;;64.25;52.50;23.70;37.40;;;;;;4957132;28;8780;-82
2022/05/21 03:22:55;;;;;;;;;61.00;50.25;23.70;37.30;;;;;;4957188;28;8852;-81
2022/05/21 03:25:20;;;;;;;;;29.33;29.33;23.60;37.40;;;;;;4957099;28;8796;-79
2022/05/21 03:27:46;;;;;;;;;27.33;26.67;23.60;38.30;;;;;;4957387;28;8788;-79
2022/05/21 03:30:17;;;;;;;;;21.33;21.33;23.60;37.30;;;;;;4957100;28;8935;-82
2022/05/21 03:32:42;;;;;;;;;22.67;22.67;23.60;37.30;;;;;;4957128;28;9417;-82
2022/05/21 03:35:10;;;;;;;;;21.67;21.67;23.60;37.30;;;;;;4971846;28;8840;-81
2022/05/21 03:37:37;;;;;;;;;19.00;19.00;23.60;37.30;;;;;;4957068;28;8799;-80
2022/05/21 03:40:05;;;;;;;;;21.33;21.33;23.60;37.30;;;;;;4957281;28;8799;-80
2022/05/21 03:42:31;;;;;;;;;18.00;18.00;23.60;37.30;;;;;;4956781;28;8788;-81
2022/05/21 03:44:57;;;;;;;;;17.00;17.00;23.50;37.30;;;;;;4971675;28;8887;-80
2022/05/21 03:47:22;;;;;;;;;15.33;15.33;23.50;37.40;;;;;;4956928;28;8780;-81
2022/05/21 03:49:48;;;;;;;;;16.33;16.33;23.40;37.50;;;;;;4956876;28;9423;-81
2022/05/21 03:52:14;;;;;;;;;15.67;15.67;23.50;37.70;;;;;;4956645;28;8781;-80
2022/05/21 03:54:39;;;;;;;;;17.33;17.33;23.50;37.70;;;;;;4956741;28;8816;-80
2022/05/21 03:57:06;;;;;;;;;17.33;17.33;23.50;37.50;;;;;;4971624;28;8804;-80
2022/05/21 03:59:33;;;;;;;;;16.67;16.67;23.40;37.70;;;;;;4956525;28;8780;-81
2022/05/21 04:01:58;;;;;;;;;18.00;18.00;23.50;37.80;;;;;;4956555;28;8804;-80
2022/05/21 04:04:24;;;;;;;;;17.00;17.00;23.50;38.10;;;;;;4956498;28;8788;-80
2022/05/21 04:06:50;;;;;;;;;21.33;21.33;23.40;37.90;;;;;;4956783;28;8780;-80
2022/05/21 04:09:15;;;;;;;;;17.67;17.67;23.50;37.70;;;;;;4956619;28;8811;-80
2022/05/21 04:11:41;;;;;;;;;17.33;17.33;23.60;38.00;;;;;;4956635;28;8792;-80
2022/05/21 04:14:07;;;;;;;;;18.33;18.33;23.60;38.00;;;;;;4956217;28;8816;-80
2022/05/21 04:16:34;;;;;;;;;17.00;17.00;23.50;37.80;;;;;;4956591;28;8804;-81
2022/05/21 04:19:00;;;;;;;;;18.67;18.67;23.60;38.20;;;;;;4956228;28;8792;-80
2022/05/21 04:21:28;;;;;;;;;18.67;18.67;23.60;38.10;;;;;;4956530;28;9610;-80
2022/05/21 04:23:55;;;;;;;;;17.67;17.67;23.60;38.10;;;;;;4956530;28;8764;-80
2022/05/21 04:26:22;;;;;;;;;16.67;16.67;23.60;38.30;;;;;;4956125;28;8811;-80
2022/05/21 04:28:48;;;;;;;;;18.00;18.00;23.60;38.40;;;;;;4958576;28;8787;-80
2022/05/21 04:31:13;;;;;;;;;21.33;21.33;23.70;38.40;;;;;;4962585;28;9518;-80
2022/05/21 04:33:39;;;;;;;;;17.67;17.67;23.60;38.50;;;;;;4962513;28;8820;-80
2022/05/21 04:36:17;;;;;;;;;20.00;20.00;23.70;38.90;;;;;;4962467;28;8858;-80
2022/05/21 04:38:43;;;;;;;;;20.00;20.00;23.70;38.70;;;;;;4962579;28;8768;-80
2022/05/21 04:41:10;;;;;;;;;22.00;22.00;23.80;38.60;;;;;;4962810;28;8854;-79
2022/05/21 04:43:36;;;;;;;;;23.00;23.00;23.80;38.50;;;;;;4962374;28;9578;-79
2022/05/21 04:46:02;;;;;;;;;16.67;16.67;23.90;38.80;;;;;;4962695;28;9149;-80
2022/05/21 04:48:28;;;;;;;;;22.33;22.33;23.90;38.70;;;;;;4977528;28;8800;-80
2022/05/21 04:50:58;;;;;;;;;23.67;23.67;23.90;38.70;;;;;;4962388;28;9441;-80
2022/05/21 04:53:24;;;;;;;;;24.33;24.33;23.90;38.50;;;;;;4977546;28;8976;-79
2022/05/21 04:55:50;;;;;;;;;22.00;22.00;24.00;38.50;;;;;;4962229;28;8942;-79
2022/05/21 04:58:16;;;;;;;;;22.33;22.33;24.00;38.30;;;;;;4962385;28;8777;-80
2022/05/21 05:00:41;;;;;;;;;27.00;27.00;23.90;38.70;;;;;;4962329;28;8822;-80
2022/05/21 05:03:11;;;;;;;;;24.67;24.67;24.00;38.70;;;;;;4962290;28;8784;-79
2022/05/21 05:05:41;;;;;;;;;34.33;31.67;24.10;38.30;;;;;;4970112;28;8801;-79
2022/05/21 05:08:08;;;;;;;;;31.00;31.00;24.10;37.80;;;;;;4972598;28;8794;-79
2022/05/21 05:10:36;;;;;;;;;23.33;23.33;24.00;37.80;;;;;;4981561;28;8789;-79
2022/05/21 05:13:06;;;;;;;;;33.67;32.67;24.10;38.10;;;;;;4981620;28;8881;-79
2022/05/21 05:15:32;;;;;;;;;34.00;32.33;24.20;37.80;;;;;;4980892;28;8983;-80
2022/05/21 05:18:09;;;;;;;;;33.33;31.33;24.20;38.30;;;;;;4981559;28;8769;-80
2022/05/21 05:20:37;;;;;;;;;34.33;33.00;24.30;38.00;;;;;;4981509;28;8797;-79
2022/05/21 05:23:04;;;;;;;;;32.33;31.67;24.40;37.20;;;;;;4980352;28;8786;-79
2022/05/21 05:25:30;;;;;;;;;34.67;33.33;24.40;37.50;;;;;;4980500;28;9737;-79
2022/05/21 05:27:56;;;;;;;;;33.33;31.67;24.40;37.80;;;;;;4980294;28;9446;-79
2022/05/21 05:30:23;;;;;;;;;29.33;29.33;24.60;38.10;;;;;;4980173;28;8774;-79
2022/05/21 05:32:49;;;;;;;;;32.33;31.67;24.60;37.40;;;;;;4979476;28;9396;-79
2022/05/21 05:35:16;;;;;;;;;32.00;31.67;24.60;37.90;;;;;;4979953;28;8793;-79
2022/05/21 05:37:42;;;;;;;;;31.00;31.00;24.70;37.90;;;;;;4980074;28;8784;-79
2022/05/21 05:40:12;;;;;;;;;28.33;28.33;24.70;37.90;;;;;;4978280;28;8766;-80
2022/05/21 05:42:38;;;;;;;;;21.00;21.00;24.80;38.00;;;;;;4977270;28;8765;-79
2022/05/21 05:45:06;;;;;;;;;30.33;30.33;24.90;37.70;;;;;;4976822;28;8806;-79
2022/05/21 05:47:33;;;;;;;;;27.00;27.00;24.90;38.40;;;;;;4976865;28;8876;-79
2022/05/21 05:50:00;;;;;;;;;28.33;28.33;25.10;38.50;;;;;;4976909;28;8761;-79
2022/05/21 05:52:26;;;;;;;;;25.67;25.67;24.90;38.40;;;;;;4972321;28;8827;-79
2022/05/21 05:54:53;;;;;;;;;25.00;25.00;24.90;38.70;;;;;;4976862;28;9442;-80
2022/05/21 05:57:19;;;;;;;;;21.67;21.67;24.70;38.80;;;;;;4976806;28;8785;-80
2022/05/21 05:59:50;;;;;;;;;22.67;22.67;24.70;38.80;;;;;;4976486;28;8754;-81
2022/05/21 06:05:11;;;;;;;;;25.67;25.00;24.70;38.90;;;;;;4966294;28;8768;-80
2022/05/21 06:07:45;;;;;;;;;22.00;22.00;24.90;38.90;;;;;;4976557;28;8808;-80
2022/05/21 06:10:13;;;;;;;;;27.00;27.00;24.80;39.40;;;;;;4972974;28;8816;-80
2022/05/21 06:12:39;;;;;;;;;20.00;20.00;24.90;38.80;;;;;;4967142;28;8796;-80
2022/05/21 06:15:05;;;;;;;;;19.33;19.33;25.20;38.70;;;;;;4980745;28;8824;-80
2022/05/21 06:17:31;;;;;;;;;20.67;20.67;25.10;38.20;;;;;;4967464;28;8778;-80
2022/05/21 06:19:57;;;;;;;;;22.33;22.33;25.30;38.50;;;;;;4967199;28;8871;-81
2022/05/21 06:22:23;;;;;;;;;19.67;19.67;25.40;38.30;;;;;;4973705;28;8864;-81
2022/05/21 06:24:50;;;;;;;;;19.00;19.00;25.40;39.50;;;;;;4976434;28;8871;-80
2022/05/21 06:27:16;;;;;;;;;21.00;19.33;25.40;38.20;;;;;;4973453;28;8809;-80
2022/05/21 06:29:42;;;;;;;;;18.00;18.00;25.40;38.10;;;;;;4973754;28;8792;-80
2022/05/21 06:32:08;;;;;;;;;19.33;19.33;25.30;38.10;;;;;;4958732;28;8867;-77
2022/05/21 06:34:37;;;;;;;;;19.00;19.00;25.10;38.90;;;;;;4975755;28;8821;-79
2022/05/21 06:37:08;;;;;;;;;19.00;19.00;25.50;38.70;;;;;;4976309;28;10011;-80
2022/05/21 06:39:35;;;;;;;;;18.67;18.67;25.50;38.90;;;;;;4974038;28;8773;-76
2022/05/21 06:42:02;;;;;;;;;20.00;20.00;25.60;39.50;;;;;;4975340;28;8809;-76
2022/05/21 06:44:28;;;;;;;;;17.00;17.00;25.50;39.80;;;;;;4974368;28;8812;-79
2022/05/21 06:46:55;;;;;;;;;21.33;21.33;24.90;39.90;;;;;;4965337;28;8811;-74
2022/05/21 06:49:21;;;;;;;;;20.00;20.00;25.10;39.60;;;;;;4975754;28;9435;-76
2022/05/21 06:51:52;;;;;;;;;18.00;18.00;25.10;39.50;;;;;;4976699;28;8789;-80
2022/05/21 06:54:18;;;;;;;;;17.00;17.00;25.20;39.60;;;;;;4976732;28;8867;-76
2022/05/21 06:56:44;;;;;;;;;16.33;16.33;25.20;39.10;;;;;;4976897;28;8761;-75
2022/05/21 06:59:10;;;;;;;;;18.00;18.00;25.30;39.40;;;;;;4976940;28;8872;-76
2022/05/21 07:01:36;;;;;;;;;18.33;18.33;25.30;39.90;;;;;;4976694;28;8836;-75
2022/05/21 07:04:02;;;;;;;;;22.67;22.67;25.30;39.70;;;;;;4975406;28;8777;-75
2022/05/21 07:09:12;;;;;;;;;17.67;17.67;25.90;39.20;;;;;;4964999;28;8768;-75
2022/05/21 07:11:38;;;;;;;;;20.00;20.00;25.70;39.10;;;;;;4965975;28;8812;-75
2022/05/21 07:14:04;;;;;;;;;15.33;15.33;25.80;38.90;;;;;;4966149;28;8804;-75
2022/05/21 07:16:30;;;;;;;;;19.00;19.00;25.70;39.20;;;;;;4968840;28;8798;-74
2022/05/21 07:18:56;;;;;;;;;20.67;20.67;25.80;39.80;;;;;;4973650;28;8825;-75
2022/05/21 07:21:22;;;;;;;;;21.33;21.33;25.40;40.30;;;;;;4971134;28;9526;-75
2022/05/21 07:23:48;;;;;;;;;17.67;17.67;25.70;39.70;;;;;;4972274;28;8801;-75
2022/05/21 07:26:15;;;;;;;;;12.67;12.67;26.00;39.20;;;;;;4973918;28;9408;-75
2022/05/21 07:28:41;;;;;;;;;17.00;17.00;25.90;39.10;;;;;;4975140;28;8778;-75
2022/05/21 07:31:07;;;;;;;;;17.33;17.33;26.00;39.20;;;;;;4974941;28;8905;-75
2022/05/21 07:33:33;;;;;;;;;19.67;19.67;26.20;39.10;;;;;;4975242;28;8832;-75
2022/05/21 07:35:59;;;;;;;;;17.67;17.67;26.40;38.70;;;;;;4975648;28;8927;-74
2022/05/21 07:38:25;;;;;;;;;19.00;19.00;26.50;38.00;;;;;;4970172;28;8904;-74
2022/05/21 07:40:52;;;;;;;;;19.67;19.67;26.70;37.50;;;;;;4960223;28;8868;-76
2022/05/21 07:43:30;;;;;;;;;19.00;19.00;26.90;37.40;;;;;;4960381;28;8793;-77
2022/05/21 07:45:57;;;;;;;;;16.00;16.00;27.00;37.00;;;;;;4961492;28;8794;-75
2022/05/21 07:48:25;;;;;;;;;14.67;14.67;27.10;36.70;;;;;;4967256;28;8805;-75
2022/05/21 07:50:57;;;;;;;;;15.33;15.33;27.30;36.40;;;;;;4962721;28;8782;-76
2022/05/21 07:53:27;;;;;;;;;19.00;19.00;26.90;35.80;;;;;;4975976;28;8769;-78
2022/05/21 07:55:54;;;;;;;;;19.00;19.00;26.90;36.50;;;;;;4972885;28;8833;-74
2022/05/21 07:58:21;;;;;;;;;16.67;16.67;27.10;36.80;;;;;;4969702;28;8808;-77
2022/05/21 08:00:47;;;;;;;;;18.00;18.00;27.40;36.30;;;;;;4964942;28;8776;-77
2022/05/21 08:03:14;;;;;;;;;16.33;16.33;27.60;35.40;;;;;;4965514;28;8875;-77
2022/05/21 08:05:41;;;;;;;;;17.33;17.33;27.40;35.60;;;;;;4965240;28;8800;-76
2022/05/21 08:08:08;;;;;;;;;15.33;15.33;27.50;35.80;;;;;;4961327;28;8785;-77
2022/05/21 08:10:35;;;;;;;;;15.67;15.67;27.50;35.50;;;;;;4970085;28;8774;-78
2022/05/21 08:13:02;;;;;;;;;11.33;11.33;27.70;35.40;;;;;;4964149;28;8793;-80
2022/05/21 08:15:29;;;;;;;;;18.00;18.00;27.90;35.20;;;;;;4967574;28;8837;-77
2022/05/21 08:17:55;;;;;;;;;21.33;21.33;27.90;35.40;;;;;;4963970;28;9482;-77
2022/05/21 08:20:23;;;;;;;;;17.00;17.00;28.20;35.50;;;;;;4967373;28;8810;-76
2022/05/21 08:28:17;;;;;;;;;20.00;20.00;27.80;36.00;;;;;;4955901;28;8859;-79
2022/05/21 08:30:45;;;;;;;;;17.00;17.00;27.90;35.70;;;;;;4956358;29;8920;-77
2022/05/21 08:33:11;;;;;;;;;16.00;16.00;27.50;35.70;;;;;;4955825;29;8878;-78
2022/05/21 08:35:38;;;;;;;;;15.67;15.67;27.60;35.90;;;;;;4956057;29;8835;-78
2022/05/21 08:38:10;;;;;;;;;18.33;18.33;27.70;36.40;;;;;;4956112;29;8851;-78
2022/05/21 08:40:55;;;;;;;;;19.00;19.00;28.10;36.40;;;;;;4960954;28;8793;-78
2022/05/21 08:43:39;;;;;;;;;20.00;20.00;28.20;35.90;;;;;;4967081;28;8844;-77
2022/05/21 08:46:06;;;;;;;;;20.33;20.33;28.50;35.30;;;;;;4968812;28;8834;-77
2022/05/21 08:48:33;;;;;;;;;16.33;16.33;28.30;35.50;;;;;;4970529;28;8813;-77
2022/05/21 08:51:02;;;;;;;;;20.33;20.33;28.40;35.70;;;;;;4975234;28;8782;-79
2022/05/21 08:53:30;;;;;;;;;19.00;19.00;28.60;34.40;;;;;;4975577;28;9456;-79
2022/05/21 08:55:59;;;;;;;;;18.00;18.00;28.60;34.40;;;;;;4967803;28;8837;-79
2022/05/21 08:58:35;;;;;;;;;12.67;12.67;28.50;34.70;;;;;;4957070;28;8835;-80
2022/05/21 09:01:01;;;;;;;;;17.67;17.67;28.40;35.20;;;;;;4966112;28;8796;-78
2022/05/21 09:03:27;;;;;;;;;20.33;20.33;28.40;34.60;;;;;;4966462;28;8793;-78
2022/05/21 09:06:05;;;;;;;;;17.00;17.00;28.50;34.20;;;;;;4955650;29;8794;-76
2022/05/21 09:09:00;;;;;;;;;18.33;18.33;28.80;33.50;;;;;;4955816;29;8791;-77
2022/05/21 09:11:48;;;;;;;;;15.33;15.33;28.90;32.80;;;;;;4958368;28;8918;-78
2022/05/21 09:14:21;;;;;;;;;17.00;17.00;29.00;33.10;;;;;;4955722;28;9439;-77
2022/05/21 09:16:55;;;;;;;;;17.00;17.00;28.80;33.30;;;;;;4968537;28;8795;-76
2022/05/21 09:19:28;;;;;;;;;17.67;17.67;29.10;33.80;;;;;;4978794;28;8782;-78
2022/05/21 09:22:00;;;;;;;;;16.67;16.67;29.70;34.20;;;;;;4974797;28;8785;-75
2022/05/21 09:24:44;;;;;;;;;17.67;17.67;29.60;32.20;;;;;;4975642;28;8813;-76
2022/05/21 09:27:39;;;;;;;;;15.67;15.67;29.10;33.20;;;;;;4978226;28;8824;-76
2022/05/21 09:30:25;;;;;;;;;19.00;19.00;29.30;32.60;;;;;;4973577;28;8902;-77
2022/05/21 09:32:54;;;;;;;;;16.67;16.67;29.60;32.90;;;;;;4959404;28;8886;-76
2022/05/21 09:35:29;;;;;;;;;18.00;18.00;30.10;33.80;;;;;;4958394;28;8956;-76
2022/05/21 09:37:56;;;;;;;;;19.33;19.33;30.50;32.90;;;;;;4959297;28;8786;-78
2022/05/21 09:40:39;;;;;;;;;21.00;21.00;30.60;32.20;;;;;;4958922;28;8799;-76
2022/05/21 09:46:28;;;;;;;;;20.00;20.00;30.90;32.00;;;;;;4958905;28;8756;-76
2022/05/21 09:49:11;;;;;;;;;15.33;15.33;31.00;32.60;;;;;;4973801;28;8819;-77
2022/05/21 09:51:40;;;;;;;;;18.67;18.67;31.00;32.00;;;;;;4958701;28;8796;-77
2022/05/21 09:54:19;;;;;;;;;20.67;20.67;30.90;32.00;;;;;;4958681;28;8804;-77
2022/05/21 09:56:55;;;;;;;;;20.00;20.00;31.30;32.00;;;;;;4958869;28;8800;-76
2022/05/21 09:59:24;;;;;;;;;17.67;17.67;31.60;31.60;;;;;;4958549;28;8823;-77
2022/05/21 10:01:57;;;;;;;;;18.67;18.67;31.80;31.20;;;;;;4958367;28;8806;-77
2022/05/21 10:04:52;;;;;;;;;18.33;18.33;32.00;31.90;;;;;;4958459;28;8811;-77
2022/05/21 10:11:00;;;;;;;;;18.67;18.67;32.10;31.50;;;;;;4958341;28;8744;-77
2022/05/21 10:13:35;;;;;;;;;19.33;19.33;31.30;33.40;;;;;;4958275;28;8819;-77
2022/05/21 10:16:38;;;;;;;;;21.67;21.67;31.00;33.20;;;;;;4958231;28;8942;-76
2022/05/21 10:19:33;;;;;;;;;18.00;18.00;31.20;33.00;;;;;;4958195;28;9553;-76
2022/05/21 10:22:15;;;;;;;;;21.00;21.00;31.00;33.10;;;;;;4939515;28;8807;-77
2022/05/21 10:25:06;;;;;;;;;20.67;20.67;31.90;33.80;;;;;;4958203;28;8807;-76
2022/05/21 10:28:03;;;;;;;;;20.67;20.67;32.20;31.40;;;;;;4957878;28;8784;-76
2022/05/21 10:31:00;;;;;;;;;19.00;19.00;31.80;31.70;;;;;;4958206;28;8786;-76
2022/05/21 10:33:40;;;;;;;;;20.67;20.67;32.20;31.80;;;;;;4958065;28;8819;-76
2022/05/21 10:36:16;;;;;;;;;18.67;18.67;32.60;31.10;;;;;;4972890;28;8948;-78
2022/05/21 10:38:57;;;;;;;;;18.00;18.00;32.40;31.10;;;;;;4958241;28;8780;-77
2022/05/21 10:41:43;;;;;;;;;13.00;13.00;32.20;30.80;;;;;;4958048;28;8835;-78
2022/05/21 10:44:21;;;;;;;;;14.00;14.00;32.20;31.60;;;;;;4958065;28;8820;-80
2022/05/21 10:47:05;;;;;;;;;16.00;16.00;32.80;31.00;;;;;;4972759;28;8908;-79
2022/05/21 10:49:57;;;;;;;;;14.00;14.00;32.90;30.90;;;;;;4957631;28;8776;-81
2022/05/21 10:52:45;;;;;;;;;21.00;21.00;33.10;31.00;;;;;;4957544;28;11555;-81
2022/05/21 10:55:24;;;;;;;;;17.67;17.67;33.50;30.60;;;;;;4957919;28;8804;-80
2022/05/21 10:58:08;;;;;;;;;17.00;17.00;33.90;30.40;;;;;;4957727;28;8776;-80
2022/05/21 11:00:43;;;;;;;;;15.33;15.33;33.70;29.40;;;;;;4957291;28;8760;-80
2022/05/21 11:03:32;;;;;;;;;19.00;19.00;34.00;29.80;;;;;;4957790;28;8803;-80
2022/05/21 11:06:19;;;;;;;;;19.00;19.00;34.50;29.90;;;;;;4957595;28;8803;-79
2022/05/21 11:09:02;;;;;;;;;9.00;9.00;34.80;29.60;;;;;;4957526;28;8761;-80
2022/05/21 11:11:46;;;;;;;;;17.00;17.00;34.50;29.90;;;;;;4957534;28;8806;-80
2022/05/21 11:14:27;;;;;;;;;17.67;17.67;34.60;30.00;;;;;;4957376;28;11613;-81
2022/05/21 11:17:08;;;;;;;;;17.00;17.00;34.40;29.80;;;;;;4971759;28;8804;-80
2022/05/21 11:20:06;;;;;;;;;18.67;18.67;34.40;29.80;;;;;;4958849;28;11539;-79
2022/05/21 11:22:58;;;;;;;;;18.67;18.67;33.80;30.60;;;;;;4956785;28;11655;-80
2022/05/21 11:25:33;;;;;;;;;18.67;18.67;34.00;31.20;;;;;;4957523;28;8792;-79
2022/05/21 11:28:11;;;;;;;;;19.00;19.00;34.10;31.30;;;;;;4957188;28;11576;-79
2022/05/21 11:30:37;;;;;;;;;19.33;19.33;34.60;30.30;;;;;;4956868;28;12210;-79
2022/05/21 11:38:49;;;;;;;;;18.00;18.00;35.50;30.20;;;;;;4956117;28;11530;-79
2022/05/21 11:41:29;;;;;;;;;17.00;17.00;36.20;29.10;;;;;;4956941;28;8801;-81
2022/05/21 11:46:49;;;;;;;;;17.33;17.33;38.40;27.60;;;;;;4956654;28;12149;-80
2022/05/21 11:49:30;;;;;;;;;16.67;16.67;43.20;25.00;;;;;;4956757;28;11550;-80
2022/05/21 11:51:59;;;;;;;;;18.00;18.00;48.50;21.00;;;;;;4956469;28;11641;-81
2022/05/21 11:54:49;;;;;;;;;15.00;15.00;52.70;18.70;;;;;;4956610;28;11569;-81
2022/05/21 11:57:35;;;;;;;;;15.00;15.00;54.50;16.20;;;;;;4956746;28;11563;-81
2022/05/21 12:00:05;;;;;;;;;14.25;14.25;55.40;15.80;;;;;;4956354;28;11554;-82
2022/05/21 12:02:38;;;;;;;;;15.75;15.75;55.00;15.50;;;;;;4956338;28;11579;-81
2022/05/21 12:05:11;;;;;;;;;10.75;10.75;55.30;15.40;;;;;;4956632;28;11560;-81
2022/05/21 12:07:48;;;;;;;;;13.25;13.25;51.50;14.20;;;;;;4956478;28;11637;-81
2022/05/21 12:10:27;;;;;;;;;12.75;12.75;47.50;16.80;;;;;;4971327;28;11599;-81
2022/05/21 12:13:01;;;;;;;;;9.00;9.00;43.30;19.20;;;;;;4956290;28;11652;-80
2022/05/21 12:15:48;;;;;;;;;11.75;11.75;41.20;21.90;;;;;;4955152;28;11574;-80
2022/05/21 12:18:44;;;;;;;;;10.00;10.00;39.80;21.80;;;;;;4956469;28;11529;-80
2022/05/21 12:21:30;;;;;;;;;11.25;11.25;38.80;23.80;;;;;;4955109;28;11547;-80
2022/05/21 12:23:56;;;;;;;;;12.25;12.25;38.20;24.30;;;;;;4936790;28;11582;-77
2022/05/21 12:26:23;;;;;;;;;6.00;6.00;38.20;24.10;;;;;;4955955;28;11628;-80
2022/05/21 12:29:08;;;;;;;;;6.00;6.00;37.50;23.40;;;;;;4956100;28;11597;-80
2022/05/21 12:31:43;;;;;;;;;7.75;7.75;36.60;24.10;;;;;;4956071;28;11505;-84
2022/05/21 12:34:48;;;;;;;;;9.50;9.50;36.50;24.20;;;;;;4955769;29;11544;-82
2022/05/21 12:37:30;;;;;;;;;10.75;10.75;36.80;25.30;;;;;;4956059;29;11513;-82
2022/05/21 12:40:05;;;;;;;;;10.75;10.75;37.00;24.30;;;;;;4955910;28;11529;-81
2022/05/21 12:42:37;;;;;;;;;8.25;8.25;37.60;24.40;;;;;;4956091;29;11622;-80
2022/05/21 12:45:03;;;;;;;;;8.25;8.25;37.30;23.90;;;;;;4956570;29;11584;-81
2022/05/21 12:47:30;;;;;;;;;7.50;7.50;37.40;24.80;;;;;;4955888;28;11506;-82
2022/05/21 12:49:58;;;;;;;;;6.00;6.00;38.00;23.90;;;;;;4957421;28;11541;-82
2022/05/21 12:52:42;;;;;;;;;8.00;8.00;37.90;23.50;;;;;;4960139;28;11470;-83
2022/05/21 12:55:14;;;;;;;;;9.25;9.25;38.00;24.00;;;;;;4959748;28;12133;-82
2022/05/21 12:57:40;;;;;;;;;7.75;7.75;37.60;23.10;;;;;;4959800;28;11507;-80
2022/05/21 13:00:07;;;;;;;;;6.00;6.00;37.80;23.80;;;;;;4958594;28;11537;-82
2022/05/21 13:02:47;;;;;;;;;7.75;7.75;38.00;24.10;;;;;;4959677;28;8883;-81
2022/05/21 13:05:25;;;;;;;;;6.75;6.75;37.50;23.90;;;;;;4959688;28;11519;-81
2022/05/21 13:07:53;;;;;;;;;6.00;6.00;37.90;23.30;;;;;;4959584;28;11488;-82
2022/05/21 13:10:29;;;;;;;;;5.25;5.25;37.50;23.10;;;;;;4959587;28;11486;-81
2022/05/21 13:12:59;;;;;;;;;6.25;6.25;37.50;23.60;;;;;;4959323;28;11481;-82
2022/05/21 13:15:39;;;;;;;;;7.25;7.25;37.80;23.90;;;;;;4959231;28;11563;-81
2022/05/21 13:18:08;;;;;;;;;8.25;8.25;38.00;23.10;;;;;;4959585;28;12129;-81
2022/05/21 13:20:55;;;;;;;;;6.75;6.75;38.00;24.40;;;;;;4959461;28;11481;-81
2022/05/21 13:23:57;;;;;;;;;7.00;7.00;37.90;23.30;;;;;;4959536;28;11495;-81
2022/05/21 13:26:26;;;;;;;;;6.75;6.75;38.00;23.60;;;;;;4959425;28;11499;-82
2022/05/21 13:29:26;;;;;;;;;7.00;7.00;37.60;22.80;;;;;;4959245;28;11507;-81
2022/05/21 13:31:54;;;;;;;;;6.75;6.75;37.80;23.50;;;;;;4959624;28;11588;-81